Ana Sayfa
METAR-TAF:

METAR-TAF

Havaalanları :

Ipiales, Kolombiya

Enlem: 00-49N, Boylam: 077-38W, yükseklik: 2961 m

Güncel hava durumu gözlemi

Rapor saat 15:00 UTC de 1 saat ve 7 dakika önce yapıldı.
Rüzgar doğudan 8 kt
Sıcaklık 12°C
Nem 82%
Basınç 1031 hPa
Görüş mesafesi 10 km veya daha fazla
1600 ft yükseklikte parçalı çok bulutlu
Civarda sağanaklar

METAR: SKIP 181500Z 10008KT 9999 VCSH BKN016 12/09 A3044 RMK VCSH/E

Saat: 11:07 (16:07 UTC)


TAF: eksik

4.000'den fazla havaalanı için hava durumu gözlemleri ve tahminleri (METAR ve TAF raporları).

Kullanılabilir istasyonlar harita üzerinde sarı ve kırmızı noktalarla gösterilir.

İstasyonun adını görmek için fareyi noktanın üzerinde gezdirin.

Sonrasında hava gözlem ve tahminlerini görmek için tıklayın.

Haritayı değiştirmek için: yaklaştırmak için siyah artı işaretli yeşil düğmeye ve uzaklaştırmak için de eksi işaretli düğmeye hızla tıklayın; bitişik haritalar için yeşil okları kullanın.


METAR-TAF: